Latest Weather Observations for Green Cape

IDN60801

Issued at 12:02 pm EDT Monday 30 March 2015 (issued every 30 minutes, with the page automatically refreshed every 10 minutes)

About weather observations | Map of weather stations | Latest weather observations for NSW | Other Formats
Station Details ID: 069137 Name: GREEN CAPE AWS Lat: -37.26 Lon: 150.05 Height: 19.4 m
Data from the previous 72 hours. | See also: Recent months at Green Cape
Date/Time
EDT
Temp
°C
App
Temp
°C
Dew
Point
Rel
Hum
%
Delta-T
°C
Wind Press
QNH
hPa
Press
MSL
hPa
Rain
since 9 am
mm
Dir
 
Spd
km/h
Gust
km/h
Spd
kts
Gust
kts
30/12:00pm 23.1 22.8 15.4 62 4.6 NNE 11 13 6 7 1024.2 1024.2 0.0
30/11:30am 22.9 22.7 15.7 64 4.3 NNE 11 13 6 7 1024.7 1024.7 0.0
30/11:00am 21.7 22.0 16.0 70 3.4 N 9 13 5 7 1025.0 1025.0 0.0
30/10:30am 19.7 20.5 14.9 74 2.8 N 4 6 2 3 1025.1 1025.1 0.0
30/10:00am 17.1 17.1 13.6 80 2.0 W 6 9 3 5 1025.0 1025.0 0.0
30/09:30am 15.9 15.1 13.0 83 1.6 W 9 11 5 6 1025.0 1025.0 0.0
30/09:00am 14.8 12.8 12.7 87 1.1 W 15 17 8 9 1024.9 1024.9 0.0
30/08:30am 14.3 12.2 12.5 89 1.0 W 15 17 8 9 1024.7 1024.7 0.0
30/08:00am 14.0 12.3 12.6 91 0.8 W 13 15 7 8 1024.3 1024.3 0.0
30/07:30am 13.7 12.0 12.4 92 0.7 W 13 15 7 8 1024.0 1024.0 0.0
30/07:00am 13.6 11.5 12.3 92 0.7 W 15 17 8 9 1023.7 1023.7 0.0
30/06:30am 13.6 11.4 12.2 91 0.8 WNW 15 17 8 9 1023.4 1023.4 0.0
30/06:00am 14.0 11.9 12.4 90 0.9 W 15 17 8 9 1023.2 1023.2 0.0
30/05:30am 14.0 11.8 12.2 89 1.0 W 15 17 8 9 1023.1 1023.1 0.0
30/05:00am 14.0 11.9 12.4 90 0.9 WNW 15 17 8 9 1022.9 1022.9 0.0
30/04:30am 14.1 11.7 12.5 90 0.9 W 17 19 9 10 1022.9 1022.9 0.0
30/04:00am 14.5 12.9 12.9 90 0.9 W 13 17 7 9 1023.1 1023.1 0.0
30/03:30am 14.4 12.8 12.8 90 0.9 W 13 15 7 8 1023.3 1023.3 0.0
30/03:00am 14.7 13.1 12.9 89 1.0 W 13 15 7 8 1023.4 1023.4 0.0
30/02:30am 14.9 13.3 12.8 87 1.2 W 13 15 7 8 1023.6 1023.6 0.0
30/02:00am 15.0 13.4 12.9 87 1.2 W 13 15 7 8 1023.8 1023.8 0.0
30/01:30am 15.3 13.8 13.0 86 1.3 W 13 13 7 7 1023.8 1023.8 0.0
30/01:00am 15.2 13.7 13.1 87 1.2 W 13 15 7 8 1023.8 1023.8 0.0
30/12:30am 15.5 14.4 13.0 85 1.4 W 11 13 6 7 1023.9 1023.9 0.0
30/12:00am 15.7 14.4 12.6 82 1.7 W 11 13 6 7 1023.9 1023.9 0.0
 
Date/Time
EDT
Temp
°C
App
Temp
°C
Dew
Point
Rel
Hum
%
Delta-T
°C
Wind Press
QNH
hPa
Press
MSL
hPa
Rain
since 9 am
mm
Dir
 
Spd
km/h
Gust
km/h
Spd
kts
Gust
kts
29/11:30pm 15.7 14.6 13.2 85 1.4 W 11 13 6 7 1024.1 1024.1 0.0
29/11:00pm 16.2 14.8 13.5 84 1.5 W 13 15 7 8 1024.1 1024.1 0.0
29/10:30pm 16.5 15.5 13.4 82 1.7 W 11 13 6 7 1024.2 1024.2 0.0
29/10:00pm 16.5 15.6 12.7 78 2.1 WNW 9 11 5 6 1024.2 1024.2 0.0
29/09:30pm 17.2 15.8 13.5 79 2.1 W 13 15 7 8 1023.9 1023.9 0.0
29/09:00pm 17.9 17.5 13.0 73 2.7 S 7 9 4 5 1023.4 1023.4 0.0
29/08:30pm 17.9 17.0 12.6 71 3.0 SSE 9 9 5 5 1023.0 1023.0 0.0
29/08:00pm 18.1 17.6 12.5 70 3.1 SSE 7 9 4 5 1022.6 1022.6 0.0
29/07:30pm 18.1 17.4 12.1 68 3.3 SSE 7 11 4 6 1022.2 1022.2 0.0
29/07:00pm 18.6 17.3 12.4 67 3.4 SSE 11 15 6 8 1021.8 1021.8 0.0
29/06:30pm 19.3 17.9 12.3 64 3.9 SSE 11 15 6 8 1021.6 1021.6 0.0
29/06:00pm 19.8 18.1 12.3 62 4.2 SE 13 19 7 10 1021.3 1021.3 0.0
29/05:30pm 20.2 18.6 12.7 62 4.2 SE 13 17 7 9 1021.2 1021.2 0.0
29/05:00pm 20.6 18.6 12.8 61 4.4 ESE 15 19 8 10 1021.1 1021.1 0.0
29/04:30pm 21.4 19.7 13.6 61 4.5 SE 15 19 8 10 1021.0 1021.0 0.0
29/04:00pm 21.4 20.5 12.5 57 5.0 ESE 9 13 5 7 1021.2 1021.2 0.0
29/03:30pm 21.3 19.8 13.2 60 4.6 ESE 13 17 7 9 1021.1 1021.1 0.0
29/03:00pm 22.3 20.7 13.9 59 4.9 SE 15 17 8 9 1021.2 1021.2 0.0
29/02:30pm 22.5 21.3 14.1 59 4.9 SE 13 17 7 9 1021.4 1021.4 0.0
29/02:00pm 22.1 21.1 13.5 58 5.0 SE 11 15 6 8 1021.6 1021.6 0.0
29/01:30pm 23.4 22.6 14.1 56 5.5 SSE 11 13 6 7 1022.1 1022.1 0.0
29/01:00pm 23.1 22.7 14.1 57 5.3 SE 9 11 5 6 1022.4 1022.4 0.0
29/12:30pm 22.8 22.0 14.1 58 5.1 SSE 11 13 6 7 1022.5 1022.5 0.0
29/12:00pm 22.9 22.8 15.0 61 4.7 SSE 9 11 5 6 1022.7 1022.7 0.0
29/11:30am 20.4 20.5 13.8 66 3.8 S 6 7 3 4 1022.9 1022.9 0.0
29/11:00am 19.1 18.4 12.1 64 3.9 WSW 7 13 4 7 1023.0 1023.0 0.0
29/10:30am 18.6 17.2 12.1 66 3.6 W 11 13 6 7 1023.0 1023.0 0.0
29/10:00am 17.4 15.5 11.7 69 3.1 W 13 17 7 9 1022.9 1022.9 0.0
29/09:30am 15.6 13.4 12.2 80 1.9 W 15 17 8 9 1022.6 1022.6 0.0
29/09:00am 15.0 13.3 12.3 84 1.5 W 13 19 7 10 1022.1 1022.1 0.0
29/08:30am 14.5 13.2 12.4 87 1.1 WNW 11 15 6 8 1021.8 1021.8 0.0
29/08:00am 14.5 14.0 12.7 89 1.0 WNW 7 9 4 5 1021.7 1021.7 0.0
29/07:30am 13.9 12.9 12.3 90 0.9 W 9 11 5 6 1021.4 1021.4 0.0
29/07:00am 13.6 12.1 11.8 89 1.0 W 11 15 6 8 1021.1 1021.1 0.0
29/06:30am 13.7 11.8 11.9 89 1.0 WSW 13 15 7 8 1020.9 1020.9 0.0
29/06:00am 13.9 12.8 12.1 89 1.0 W 9 11 5 6 1020.7 1020.7 0.0
29/05:30am 13.8 13.1 12.0 89 1.0 W 7 9 4 5 1020.7 1020.7 0.0
29/05:00am 13.9 12.8 11.9 88 1.1 W 9 11 5 6 1020.6 1020.6 0.0
29/04:30am 14.2 13.1 12.1 87 1.1 W 9 11 5 6 1020.7 1020.7 0.0
29/04:00am 14.1 13.3 11.6 85 1.3 W 7 9 4 5 1020.8 1020.8 0.0
29/03:30am 13.9 13.0 11.4 85 1.3 W 7 9 4 5 1021.2 1021.2 0.0
29/03:00am 14.1 12.5 11.6 85 1.3 W 11 13 6 7 1021.6 1021.6 0.0
29/02:30am 14.3 13.5 11.6 84 1.4 W 7 9 4 5 1021.9 1021.9 0.0
29/02:00am 14.4 13.3 10.8 79 1.9 W 7 9 4 5 1022.1 1022.1 0.0
29/01:30am 14.4 13.3 10.6 78 2.0 W 7 9 4 5 1022.3 1022.3 0.0
29/01:00am 14.4 13.2 10.2 76 2.2 WNW 7 11 4 6 1022.5 1022.5 0.0
29/12:30am 14.7 12.7 10.3 75 2.3 WNW 11 13 6 7 1022.6 1022.6 0.0
29/12:00am 15.1 13.3 10.9 76 2.2 W 11 15 6 8 1022.9 1022.9 0.0
 
Date/Time
EDT
Temp
°C
App
Temp
°C
Dew
Point
Rel
Hum
%
Delta-T
°C
Wind Press
QNH
hPa
Press
MSL
hPa
Rain
since 9 am
mm
Dir
 
Spd
km/h
Gust
km/h
Spd
kts
Gust
kts
28/11:30pm 15.4 13.6 11.0 75 2.3 W 11 13 6 7 1023.1 1023.1 0.0
28/11:00pm 15.7 13.9 10.9 73 2.5 W 11 13 6 7 1023.1 1023.1 0.0
28/10:30pm 16.0 13.7 10.5 70 2.9 WSW 13 15 7 8 1023.4 1023.4 0.0
28/10:00pm 16.0 13.7 10.5 70 2.9 WSW 13 15 7 8 1023.6 1023.6 0.0
28/09:30pm 16.2 13.9 10.5 69 3.0 SW 13 15 7 8 1023.4 1023.4 0.0
28/09:00pm 16.4 13.4 10.5 68 3.1 SW 17 22 9 12 1023.3 1023.3 0.0
28/08:30pm 16.3 11.5 10.4 68 3.1 SSW 26 30 14 16 1022.9 1022.9 0.0
28/08:00pm 16.6 11.2 10.9 69 3.0 SSW 30 32 16 17 1022.8 1022.8 0.0
28/07:30pm 16.6 11.3 11.1 70 3.0 SSW 30 33 16 18 1022.3 1022.3 0.0
28/07:00pm 17.0 10.9 11.7 71 2.9 SSW 35 39 19 21 1022.0 1022.0 0.0
28/06:30pm 17.1 10.6 11.8 71 2.9 S 37 43 20 23 1021.7 1021.7 0.0
28/06:00pm 17.4 10.2 11.9 70 3.0 S 41 46 22 25 1021.2 1021.2 0.0
28/05:30pm 17.8 10.8 12.5 71 2.9 S 41 46 22 25 1021.1 1021.1 0.0
28/05:00pm 18.5 11.6 12.9 70 3.1 S 41 48 22 26 1021.0 1021.0 0.0
28/04:30pm 18.5 11.2 12.9 70 3.1 S 43 48 23 26 1020.8 1020.8 0.0
28/04:00pm 19.8 13.9 13.7 68 3.5 S 37 43 20 23 1020.9 1020.9 0.0
28/03:30pm 20.1 14.7 13.8 67 3.6 S 35 39 19 21 1021.3 1021.3 0.0
28/03:00pm 20.4 15.3 13.6 65 3.9 SSE 33 37 18 20 1021.5 1021.5 0.0
28/02:30pm 21.1 16.7 13.0 60 4.6 SSE 28 32 15 17 1021.7 1021.7 0.0
28/02:00pm 22.1 19.3 13.2 57 5.1 SSE 20 26 11 14 1022.0 1022.0 0.0
28/01:30pm 20.1 16.8 11.6 58 4.7 S 20 24 11 13 1022.3 1022.3 0.0
28/01:00pm 19.5 15.0 11.3 59 4.5 SSW 26 32 14 17 1022.5 1022.5 0.0
28/12:30pm 19.2 15.6 10.7 58 4.6 SSW 20 24 11 13 1023.0 1023.0 0.0
28/12:00pm 18.3 12.4 10.4 60 4.2 SW 32 39 17 21 1023.1 1023.1 0.0
28/11:30am 17.7 11.9 9.6 59 4.3 SW 30 39 16 21 1023.2 1023.2 0.0
28/11:00am 17.2 9.8 9.9 62 3.8 SW 39 44 21 24 1023.2 1023.2 0.0
28/10:30am 16.7 10.5 9.9 64 3.6 WSW 33 41 18 22 1023.5 1023.5 0.0
28/10:00am 16.2 9.8 9.4 64 3.5 WSW 33 44 18 24 1023.5 1023.5 0.0
28/09:30am 15.7 10.3 9.4 66 3.3 WSW 28 37 15 20 1023.4 1023.4 0.0
28/09:00am 15.3 9.1 9.4 68 3.0 WSW 32 41 17 22 1023.1 1023.1 0.0
28/08:30am 15.0 9.1 8.9 67 3.1 WSW 30 39 16 21 1022.7 1022.7 0.0
28/08:00am 14.8 7.9 8.7 67 3.1 WSW 35 44 19 24 1022.6 1022.6 0.0
28/07:30am 14.8 7.9 8.7 67 3.1 WSW 35 50 19 27 1022.1 1022.1 0.0
28/07:00am 15.2 7.7 9.3 68 3.0 WSW 39 46 21 25 1021.7 1021.7 0.0
28/06:30am 15.3 8.1 9.2 67 3.1 WSW 37 44 20 24 1021.4 1021.4 0.0
28/06:00am 15.3 9.6 8.5 64 3.4 SW 28 37 15 20 1021.2 1021.2 0.0
28/05:30am 15.3 9.3 8.5 64 3.4 SW 30 39 16 21 1021.0 1021.0 0.0
28/05:00am 15.1 9.0 9.9 71 2.7 SW 32 39 17 21 1020.6 1020.6 0.0
28/04:30am 15.4 8.3 9.7 69 3.0 SW 37 52 20 28 1020.6 1020.6 0.0
28/04:00am 15.5 8.4 9.6 68 3.0 WSW 37 46 20 25 1020.4 1020.4 0.0
28/03:30am 15.6 8.6 9.9 69 3.0 WSW 37 46 20 25 1020.2 1020.2 0.0
28/03:00am 15.7 8.0 10.0 69 3.0 WSW 41 54 22 29 1020.2 1020.2 0.0
28/02:30am 15.8 8.1 10.3 70 2.9 WSW 41 54 22 29 1020.1 1020.1 0.0
28/02:00am 15.7 7.6 10.2 70 2.9 WSW 43 54 23 29 1019.8 1019.8 0.0
28/01:32am 15.9 7.5 10.9 72 2.7 WSW 46 65 25 35 1019.6 1019.6 0.0
28/01:30am 15.9 7.0 10.7 71 2.8 WSW 48 65 26 35 1019.5 1019.5 0.0
28/01:00am 15.9 6.5 10.2 69 3.0 W 50 61 27 33 1019.5 1019.5 0.0
28/12:30am 16.1 8.1 10.4 69 3.0 WSW 43 54 23 29 1019.7 1019.7 0.0
28/12:00am 16.4 7.5 10.5 68 3.1 WSW 48 61 26 33 1019.8 1019.8 0.0
 
Date/Time
EDT
Temp
°C
App
Temp
°C
Dew
Point
Rel
Hum
%
Delta-T
°C
Wind Press
QNH
hPa
Press
MSL
hPa
Rain
since 9 am
mm
Dir
 
Spd
km/h
Gust
km/h
Spd
kts
Gust
kts
27/11:42pm 16.3 7.0 10.4 68 3.1 WSW 50 69 27 37 1019.6 1019.6 0.0
27/11:30pm 16.4 7.5 10.5 68 3.1 WSW 48 59 26 32 1019.4 1019.4 0.0
27/11:00pm 16.4 7.7 10.0 66 3.4 WSW 46 59 25 32 1019.2 1019.2 0.0
27/10:30pm 16.7 7.8 10.5 67 3.3 WSW 48 61 26 33 1019.2 1019.2 0.0
27/10:00pm 16.7 6.5 10.1 65 3.5 WSW 54 69 29 37 1018.7 1018.7 0.0
27/09:32pm 16.9 7.0 9.8 63 3.7 WSW 52 70 28 38 1018.6 1018.6 0.0
27/09:30pm 17.0 6.8 9.9 63 3.7 WSW 54 70 29 38 1018.5 1018.5 0.0
27/09:00pm 17.1 6.3 9.8 62 3.8 WSW 57 74 31 40 1018.0 1018.0 0.0
27/08:30pm 17.3 8.2 9.7 61 4.0 WSW 48 67 26 36 1017.9 1017.9 0.0
27/08:00pm 17.5 9.2 10.1 62 3.9 WSW 44 65 24 35 1017.8 1017.8 0.0
27/07:57pm 17.5 9.2 9.9 61 4.0 WSW 44 65 24 35 1017.8 1017.8 0.0
27/07:30pm 17.7 8.5 9.6 59 4.3 WSW 48 63 26 34 1017.2 1017.2 0.0
27/07:00pm 18.2 10.0 9.8 58 4.4 WSW 43 63 23 34 1017.0 1017.0 0.0
27/06:42pm 18.3 11.5 9.1 55 4.8 WSW 35 56 19 30 1016.8 1016.8 0.0
27/06:30pm 18.3 11.1 9.1 55 4.8 WSW 37 52 20 28 1016.7 1016.7 0.0
27/06:00pm 19.0 10.5 10.8 59 4.4 WSW 46 70 25 38 1016.5 1016.5 0.0
27/05:30pm 19.1 10.1 9.0 52 5.3 WSW 46 70 25 38 1016.0 1016.0 0.0
27/05:00pm 19.3 8.8 8.9 51 5.4 W 54 76 29 41 1015.8 1015.8 0.0
27/04:55pm 19.5 8.8 9.4 52 5.3 WSW 56 76 30 41 1015.7 1015.7 0.0
27/04:53pm 19.5 8.9 8.5 49 5.7 WSW 54 76 29 41 1015.5 1015.5 0.0
27/04:30pm 20.4 11.8 8.1 45 6.4 WSW 43 69 23 37 1015.0 1015.0 0.0
27/04:24pm 20.0 12.6 9.9 52 5.4 WSW 39 57 21 31 1015.1 1015.1 0.0
27/04:00pm 19.7 9.6 9.0 50 5.6 WSW 52 67 28 36 1015.1 1015.1 0.0
27/03:54pm 19.6 10.9 8.6 49 5.7 WSW 44 65 24 35 1015.0 1015.0 0.0
27/03:48pm 19.6 12.8 9.2 51 5.5 WSW 35 56 19 30 1015.3 1015.3 0.0
27/03:30pm 19.8 13.1 8.2 47 6.0 WSW 33 50 18 27 1015.3 1015.3 0.0
27/03:17pm 19.6 12.9 9.5 52 5.4 WSW 35 54 19 29 1015.7 1015.7 0.0
27/03:00pm 19.3 10.5 9.5 53 5.2 WSW 46 63 25 34 1015.8 1015.8 0.0
27/02:30pm 19.4 9.6 8.7 50 5.6 WSW 50 70 27 38 1015.7 1015.7 0.0
27/02:04pm 19.0 9.9 8.6 51 5.4 WSW 46 67 25 36 1015.8 1015.8 0.0
27/02:00pm 19.3 11.0 9.2 52 5.3 WSW 43 56 23 30 1016.0 1016.0 0.0
27/01:39pm 19.1 7.9 8.4 50 5.5 WSW 57 76 31 41 1015.9 1015.9 0.0
27/01:30pm 19.3 8.0 8.0 48 5.8 WSW 57 69 31 37 1015.7 1015.7 0.0
27/01:15pm 19.8 10.0 7.2 44 6.4 WSW 48 70 26 38 1015.4 1015.4 0.0
27/01:00pm 20.0 10.0 8.0 46 6.2 WSW 50 61 27 33 1015.6 1015.6 0.0
27/12:33pm 19.8 9.5 8.2 47 6.0 WSW 52 72 28 39 1015.5 1015.5 0.0
27/12:30pm 20.1 10.8 9.1 49 5.8 WSW 48 59 26 32 1015.7 1015.7 0.0

Other Formats:

Comma delimited format used in spreadsheet applications
http://www.bom.gov.au/fwo/IDN60801/IDN60801.94934.axf

JavaScript Object Notation format (JSON) in row-major order
http://www.bom.gov.au/fwo/IDN60801/IDN60801.94934.json